sensor_id;sensor_type;location;lat;lon;timestamp;temperature;humidity
19200;DHT22;9732;52.498;5.408;2022-12-18T00:00:04;-1.30;99.90
19200;DHT22;9732;52.498;5.408;2022-12-18T00:02:32;-1.30;99.90
19200;DHT22;9732;52.498;5.408;2022-12-18T00:05:00;-1.40;99.90
19200;DHT22;9732;52.498;5.408;2022-12-18T00:07:29;-1.40;99.90
19200;DHT22;9732;52.498;5.408;2022-12-18T00:09:56;-1.40;99.90
19200;DHT22;9732;52.498;5.408;2022-12-18T00:12:23;-1.50;99.90
19200;DHT22;9732;52.498;5.408;2022-12-18T00:14:50;-1.50;99.90
19200;DHT22;9732;52.498;5.408;2022-12-18T00:17:19;-1.40;99.90
19200;DHT22;9732;52.498;5.408;2022-12-18T00:19:46;-1.40;99.90
19200;DHT22;9732;52.498;5.408;2022-12-18T00:22:14;-1.40;99.90
19200;DHT22;9732;52.498;5.408;2022-12-18T00:24:43;-1.40;99.90
19200;DHT22;9732;52.498;5.408;2022-12-18T00:27:10;-1.40;99.90
19200;DHT22;9732;52.498;5.408;2022-12-18T00:29:37;-1.40;99.90
19200;DHT22;9732;52.498;5.408;2022-12-18T00:32:04;-1.40;99.90
19200;DHT22;9732;52.498;5.408;2022-12-18T00:34:32;-1.40;99.90
19200;DHT22;9732;52.498;5.408;2022-12-18T00:37:00;-1.40;99.90
19200;DHT22;9732;52.498;5.408;2022-12-18T00:39:26;-1.40;99.90
19200;DHT22;9732;52.498;5.408;2022-12-18T00:42:03;-1.50;99.90
19200;DHT22;9732;52.498;5.408;2022-12-18T00:44:47;-1.40;99.90
19200;DHT22;9732;52.498;5.408;2022-12-18T00:47:16;-1.40;99.90
19200;DHT22;9732;52.498;5.408;2022-12-18T00:49:43;-1.40;99.90
19200;DHT22;9732;52.498;5.408;2022-12-18T00:52:12;-1.40;99.90
19200;DHT22;9732;52.498;5.408;2022-12-18T00:54:40;-1.40;99.90
19200;DHT22;9732;52.498;5.408;2022-12-18T00:57:08;-1.40;99.90
19200;DHT22;9732;52.498;5.408;2022-12-18T00:59:35;-1.40;99.90
19200;DHT22;9732;52.498;5.408;2022-12-18T01:02:03;-1.40;99.90
19200;DHT22;9732;52.498;5.408;2022-12-18T01:04:32;-1.40;99.90
19200;DHT22;9732;52.498;5.408;2022-12-18T01:07:00;-1.40;99.90
19200;DHT22;9732;52.498;5.408;2022-12-18T01:09:27;-1.40;99.90
19200;DHT22;9732;52.498;5.408;2022-12-18T01:11:54;-1.40;99.90
19200;DHT22;9732;52.498;5.408;2022-12-18T01:14:24;-1.40;99.90
19200;DHT22;9732;52.498;5.408;2022-12-18T01:16:50;-1.50;99.90
19200;DHT22;9732;52.498;5.408;2022-12-18T01:19:19;-1.50;99.90
19200;DHT22;9732;52.498;5.408;2022-12-18T01:21:47;-1.50;99.90
19200;DHT22;9732;52.498;5.408;2022-12-18T01:24:14;-1.50;99.90
19200;DHT22;9732;52.498;5.408;2022-12-18T01:26:42;-1.50;99.90
19200;DHT22;9732;52.498;5.408;2022-12-18T01:29:09;-1.50;99.90
19200;DHT22;9732;52.498;5.408;2022-12-18T01:31:39;-1.50;99.90
19200;DHT22;9732;52.498;5.408;2022-12-18T01:34:07;-1.50;99.90
19200;DHT22;9732;52.498;5.408;2022-12-18T01:36:36;-1.50;99.90
19200;DHT22;9732;52.498;5.408;2022-12-18T01:39:05;-1.60;99.90
19200;DHT22;9732;52.498;5.408;2022-12-18T01:41:35;-1.60;99.90
19200;DHT22;9732;52.498;5.408;2022-12-18T01:44:51;-1.70;99.90
19200;DHT22;9732;52.498;5.408;2022-12-18T01:47:25;-1.70;99.90
19200;DHT22;9732;52.498;5.408;2022-12-18T01:49:55;-1.70;99.90
19200;DHT22;9732;52.498;5.408;2022-12-18T01:52:27;-1.70;99.90
19200;DHT22;9732;52.498;5.408;2022-12-18T01:54:56;-1.70;99.90
19200;DHT22;9732;52.498;5.408;2022-12-18T01:57:25;-1.70;99.90
19200;DHT22;9732;52.498;5.408;2022-12-18T02:00:01;-1.80;99.90
19200;DHT22;9732;52.498;5.408;2022-12-18T02:02:30;-1.80;99.90
19200;DHT22;9732;52.498;5.408;2022-12-18T02:04:58;-1.80;99.90
19200;DHT22;9732;52.498;5.408;2022-12-18T02:07:35;-1.80;99.90
19200;DHT22;9732;52.498;5.408;2022-12-18T02:10:12;-1.80;99.90
19200;DHT22;9732;52.498;5.408;2022-12-18T02:12:45;-1.80;99.90
19200;DHT22;9732;52.498;5.408;2022-12-18T02:15:20;-1.80;99.90
19200;DHT22;9732;52.498;5.408;2022-12-18T02:17:54;-1.80;99.90
19200;DHT22;9732;52.498;5.408;2022-12-18T02:20:32;-1.80;99.90
19200;DHT22;9732;52.498;5.408;2022-12-18T02:23:09;-1.80;99.90
19200;DHT22;9732;52.498;5.408;2022-12-18T02:26:10;-1.80;99.90
19200;DHT22;9732;52.498;5.408;2022-12-18T02:28:42;-1.80;99.90
19200;DHT22;9732;52.498;5.408;2022-12-18T02:31:16;-1.80;99.90
19200;DHT22;9732;52.498;5.408;2022-12-18T02:33:49;-1.80;99.90
19200;DHT22;9732;52.498;5.408;2022-12-18T02:36:17;-1.80;99.90
19200;DHT22;9732;52.498;5.408;2022-12-18T02:38:48;-1.80;99.90
19200;DHT22;9732;52.498;5.408;2022-12-18T02:41:21;-1.80;99.90
19200;DHT22;9732;52.498;5.408;2022-12-18T02:43:55;-1.80;99.90
19200;DHT22;9732;52.498;5.408;2022-12-18T02:46:30;-1.90;99.90
19200;DHT22;9732;52.498;5.408;2022-12-18T02:49:04;-1.90;99.90
19200;DHT22;9732;52.498;5.408;2022-12-18T02:51:38;-1.90;99.90
19200;DHT22;9732;52.498;5.408;2022-12-18T02:54:13;-1.90;99.90
19200;DHT22;9732;52.498;5.408;2022-12-18T02:56:50;-1.90;99.90
19200;DHT22;9732;52.498;5.408;2022-12-18T02:59:21;-1.90;99.90
19200;DHT22;9732;52.498;5.408;2022-12-18T03:01:56;-1.90;99.90
19200;DHT22;9732;52.498;5.408;2022-12-18T03:04:26;-1.90;99.90
19200;DHT22;9732;52.498;5.408;2022-12-18T03:06:59;-1.90;99.90
19200;DHT22;9732;52.498;5.408;2022-12-18T03:09:31;-2.00;99.90
19200;DHT22;9732;52.498;5.408;2022-12-18T03:12:04;-2.00;99.90
19200;DHT22;9732;52.498;5.408;2022-12-18T03:14:58;-2.00;99.90
19200;DHT22;9732;52.498;5.408;2022-12-18T03:17:29;-2.00;99.90
19200;DHT22;9732;52.498;5.408;2022-12-18T03:20:03;-2.00;99.90
19200;DHT22;9732;52.498;5.408;2022-12-18T03:22:33;-2.00;99.90
19200;DHT22;9732;52.498;5.408;2022-12-18T03:25:06;-2.10;99.90
19200;DHT22;9732;52.498;5.408;2022-12-18T03:27:42;-2.00;99.90
19200;DHT22;9732;52.498;5.408;2022-12-18T03:30:14;-2.10;99.90
19200;DHT22;9732;52.498;5.408;2022-12-18T03:32:46;-2.10;99.90
19200;DHT22;9732;52.498;5.408;2022-12-18T03:35:19;-2.10;99.90
19200;DHT22;9732;52.498;5.408;2022-12-18T03:37:49;-2.10;99.90
19200;DHT22;9732;52.498;5.408;2022-12-18T03:40:16;-2.10;99.90
19200;DHT22;9732;52.498;5.408;2022-12-18T03:42:48;-2.10;99.90
19200;DHT22;9732;52.498;5.408;2022-12-18T03:45:22;-2.10;99.90
19200;DHT22;9732;52.498;5.408;2022-12-18T03:48:00;-2.00;99.90
19200;DHT22;9732;52.498;5.408;2022-12-18T03:50:36;-2.10;99.90
19200;DHT22;9732;52.498;5.408;2022-12-18T03:53:12;-2.10;99.90
19200;DHT22;9732;52.498;5.408;2022-12-18T03:55:42;-2.10;99.90
19200;DHT22;9732;52.498;5.408;2022-12-18T03:58:14;-2.20;99.90
19200;DHT22;9732;52.498;5.408;2022-12-18T04:00:44;-2.10;99.90
19200;DHT22;9732;52.498;5.408;2022-12-18T04:03:12;-2.10;99.90
19200;DHT22;9732;52.498;5.408;2022-12-18T04:05:42;-2.10;99.90
19200;DHT22;9732;52.498;5.408;2022-12-18T04:08:09;-2.10;99.90
19200;DHT22;9732;52.498;5.408;2022-12-18T04:10:38;-2.10;99.90
19200;DHT22;9732;52.498;5.408;2022-12-18T04:13:05;-2.10;99.90
19200;DHT22;9732;52.498;5.408;2022-12-18T04:15:34;-2.10;99.90
19200;DHT22;9732;52.498;5.408;2022-12-18T04:18:03;-2.10;99.90
19200;DHT22;9732;52.498;5.408;2022-12-18T04:20:31;-2.10;99.90
19200;DHT22;9732;52.498;5.408;2022-12-18T04:23:00;-2.10;99.90
19200;DHT22;9732;52.498;5.408;2022-12-18T04:25:28;-2.20;99.90
19200;DHT22;9732;52.498;5.408;2022-12-18T04:27:55;-2.20;99.90
19200;DHT22;9732;52.498;5.408;2022-12-18T04:30:24;-2.20;99.90
19200;DHT22;9732;52.498;5.408;2022-12-18T04:32:53;-2.20;99.90
19200;DHT22;9732;52.498;5.408;2022-12-18T04:35:20;-2.20;99.90
19200;DHT22;9732;52.498;5.408;2022-12-18T04:37:48;-2.30;99.90
19200;DHT22;9732;52.498;5.408;2022-12-18T04:40:16;-2.30;99.90
19200;DHT22;9732;52.498;5.408;2022-12-18T04:42:43;-2.40;99.90
19200;DHT22;9732;52.498;5.408;2022-12-18T04:45:10;-2.40;99.90
19200;DHT22;9732;52.498;5.408;2022-12-18T04:47:37;-2.60;99.90
19200;DHT22;9732;52.498;5.408;2022-12-18T04:50:08;-2.60;99.90
19200;DHT22;9732;52.498;5.408;2022-12-18T04:52:36;-2.70;99.90
19200;DHT22;9732;52.498;5.408;2022-12-18T04:55:05;-2.70;99.90
19200;DHT22;9732;52.498;5.408;2022-12-18T04:57:34;-2.70;99.90
19200;DHT22;9732;52.498;5.408;2022-12-18T05:00:02;-2.80;99.90
19200;DHT22;9732;52.498;5.408;2022-12-18T05:02:30;-2.80;99.90
19200;DHT22;9732;52.498;5.408;2022-12-18T05:04:57;-2.80;99.90
19200;DHT22;9732;52.498;5.408;2022-12-18T05:07:28;-2.80;99.90
19200;DHT22;9732;52.498;5.408;2022-12-18T05:09:57;-2.80;99.90
19200;DHT22;9732;52.498;5.408;2022-12-18T05:12:24;-2.90;99.90
19200;DHT22;9732;52.498;5.408;2022-12-18T05:14:53;-2.80;99.90
19200;DHT22;9732;52.498;5.408;2022-12-18T05:17:20;-2.90;99.90
19200;DHT22;9732;52.498;5.408;2022-12-18T05:19:47;-2.90;99.90
19200;DHT22;9732;52.498;5.408;2022-12-18T05:22:15;-2.90;99.90
19200;DHT22;9732;52.498;5.408;2022-12-18T05:24:44;-3.00;99.90
19200;DHT22;9732;52.498;5.408;2022-12-18T05:27:11;-3.00;99.90
19200;DHT22;9732;52.498;5.408;2022-12-18T05:29:38;-3.00;99.90
19200;DHT22;9732;52.498;5.408;2022-12-18T05:32:07;-3.00;99.90
19200;DHT22;9732;52.498;5.408;2022-12-18T05:34:35;-3.00;99.90
19200;DHT22;9732;52.498;5.408;2022-12-18T05:37:02;-3.00;99.90
19200;DHT22;9732;52.498;5.408;2022-12-18T05:39:30;-3.00;99.90
19200;DHT22;9732;52.498;5.408;2022-12-18T05:41:58;-3.00;99.90
19200;DHT22;9732;52.498;5.408;2022-12-18T05:44:26;-3.00;99.90
19200;DHT22;9732;52.498;5.408;2022-12-18T05:46:54;-3.00;99.90
19200;DHT22;9732;52.498;5.408;2022-12-18T05:49:24;-3.00;99.90
19200;DHT22;9732;52.498;5.408;2022-12-18T05:51:51;-2.90;99.90
19200;DHT22;9732;52.498;5.408;2022-12-18T05:54:18;-3.00;99.90
19200;DHT22;9732;52.498;5.408;2022-12-18T05:56:46;-3.00;99.90
19200;DHT22;9732;52.498;5.408;2022-12-18T05:59:16;-3.00;99.90
19200;DHT22;9732;52.498;5.408;2022-12-18T06:01:44;-3.00;99.90
19200;DHT22;9732;52.498;5.408;2022-12-18T06:04:12;-3.10;99.90
19200;DHT22;9732;52.498;5.408;2022-12-18T06:06:40;-3.00;99.90
19200;DHT22;9732;52.498;5.408;2022-12-18T06:09:09;-3.10;99.90
19200;DHT22;9732;52.498;5.408;2022-12-18T06:11:38;-3.00;99.90
19200;DHT22;9732;52.498;5.408;2022-12-18T06:14:06;-3.10;99.90
19200;DHT22;9732;52.498;5.408;2022-12-18T06:16:36;-3.10;99.90
19200;DHT22;9732;52.498;5.408;2022-12-18T06:19:05;-3.10;99.90
19200;DHT22;9732;52.498;5.408;2022-12-18T06:21:34;-3.10;99.90
19200;DHT22;9732;52.498;5.408;2022-12-18T06:24:01;-3.20;99.90
19200;DHT22;9732;52.498;5.408;2022-12-18T06:26:30;-3.20;99.90
19200;DHT22;9732;52.498;5.408;2022-12-18T06:28:57;-3.20;99.90
19200;DHT22;9732;52.498;5.408;2022-12-18T06:31:24;-3.20;99.90
19200;DHT22;9732;52.498;5.408;2022-12-18T06:33:53;-3.10;99.90
19200;DHT22;9732;52.498;5.408;2022-12-18T06:36:22;-3.10;99.90
19200;DHT22;9732;52.498;5.408;2022-12-18T06:38:51;-3.10;99.90
19200;DHT22;9732;52.498;5.408;2022-12-18T06:41:19;-3.10;99.90
19200;DHT22;9732;52.498;5.408;2022-12-18T06:43:48;-3.10;99.90
19200;DHT22;9732;52.498;5.408;2022-12-18T06:46:15;-3.10;99.90
19200;DHT22;9732;52.498;5.408;2022-12-18T06:48:46;-3.10;99.90
19200;DHT22;9732;52.498;5.408;2022-12-18T06:51:18;-3.10;99.90
19200;DHT22;9732;52.498;5.408;2022-12-18T06:53:46;-3.10;99.90
19200;DHT22;9732;52.498;5.408;2022-12-18T06:56:13;-3.20;99.90
19200;DHT22;9732;52.498;5.408;2022-12-18T06:58:42;-3.20;99.90
19200;DHT22;9732;52.498;5.408;2022-12-18T07:01:11;-3.20;99.90
19200;DHT22;9732;52.498;5.408;2022-12-18T07:03:41;-3.20;99.90
19200;DHT22;9732;52.498;5.408;2022-12-18T07:06:14;-3.30;99.90
19200;DHT22;9732;52.498;5.408;2022-12-18T07:08:44;-3.30;99.90
19200;DHT22;9732;52.498;5.408;2022-12-18T07:11:12;-3.30;99.90
19200;DHT22;9732;52.498;5.408;2022-12-18T07:13:40;-3.30;99.90
19200;DHT22;9732;52.498;5.408;2022-12-18T07:16:09;-3.40;99.90
19200;DHT22;9732;52.498;5.408;2022-12-18T07:18:37;-3.30;99.90
19200;DHT22;9732;52.498;5.408;2022-12-18T07:21:05;-3.40;99.90
19200;DHT22;9732;52.498;5.408;2022-12-18T07:23:34;-3.40;99.90
19200;DHT22;9732;52.498;5.408;2022-12-18T07:26:03;-3.30;99.90
19200;DHT22;9732;52.498;5.408;2022-12-18T07:28:33;-3.30;99.90
19200;DHT22;9732;52.498;5.408;2022-12-18T07:31:03;-3.40;99.90
19200;DHT22;9732;52.498;5.408;2022-12-18T07:33:32;-3.30;99.90
19200;DHT22;9732;52.498;5.408;2022-12-18T07:36:00;-3.40;99.90
19200;DHT22;9732;52.498;5.408;2022-12-18T07:38:29;-3.30;99.90
19200;DHT22;9732;52.498;5.408;2022-12-18T07:41:01;-3.30;99.90
19200;DHT22;9732;52.498;5.408;2022-12-18T07:43:30;-3.30;99.90
19200;DHT22;9732;52.498;5.408;2022-12-18T07:45:59;-3.20;99.90
19200;DHT22;9732;52.498;5.408;2022-12-18T07:48:27;-3.30;99.90
19200;DHT22;9732;52.498;5.408;2022-12-18T07:50:58;-3.20;99.90
19200;DHT22;9732;52.498;5.408;2022-12-18T07:53:27;-3.30;99.90
19200;DHT22;9732;52.498;5.408;2022-12-18T07:55:55;-3.20;99.90
19200;DHT22;9732;52.498;5.408;2022-12-18T07:58:25;-3.20;99.90
19200;DHT22;9732;52.498;5.408;2022-12-18T08:00:54;-3.20;99.90
19200;DHT22;9732;52.498;5.408;2022-12-18T08:03:21;-3.20;99.90
19200;DHT22;9732;52.498;5.408;2022-12-18T08:05:48;-3.20;99.90
19200;DHT22;9732;52.498;5.408;2022-12-18T08:08:16;-3.20;99.90
19200;DHT22;9732;52.498;5.408;2022-12-18T08:10:46;-3.10;99.90
19200;DHT22;9732;52.498;5.408;2022-12-18T08:13:14;-3.10;99.90
19200;DHT22;9732;52.498;5.408;2022-12-18T08:15:42;-3.00;99.90
19200;DHT22;9732;52.498;5.408;2022-12-18T08:18:11;-3.00;99.90
19200;DHT22;9732;52.498;5.408;2022-12-18T08:20:39;-2.90;99.90
19200;DHT22;9732;52.498;5.408;2022-12-18T08:23:07;-2.90;99.90
19200;DHT22;9732;52.498;5.408;2022-12-18T08:25:34;-2.90;99.90
19200;DHT22;9732;52.498;5.408;2022-12-18T08:28:02;-2.90;99.90
19200;DHT22;9732;52.498;5.408;2022-12-18T08:30:30;-2.90;99.90
19200;DHT22;9732;52.498;5.408;2022-12-18T08:32:58;-2.90;99.90
19200;DHT22;9732;52.498;5.408;2022-12-18T08:35:27;-2.80;99.90
19200;DHT22;9732;52.498;5.408;2022-12-18T08:37:55;-2.70;99.90
19200;DHT22;9732;52.498;5.408;2022-12-18T08:40:23;-2.70;99.90
19200;DHT22;9732;52.498;5.408;2022-12-18T08:42:51;-2.80;99.90
19200;DHT22;9732;52.498;5.408;2022-12-18T08:45:36;-2.70;99.90
19200;DHT22;9732;52.498;5.408;2022-12-18T08:48:05;-2.70;99.90
19200;DHT22;9732;52.498;5.408;2022-12-18T08:50:34;-2.70;99.90
19200;DHT22;9732;52.498;5.408;2022-12-18T08:53:03;-2.70;99.90
19200;DHT22;9732;52.498;5.408;2022-12-18T08:55:30;-2.70;99.90
19200;DHT22;9732;52.498;5.408;2022-12-18T08:57:57;-2.70;99.90
19200;DHT22;9732;52.498;5.408;2022-12-18T09:00:24;-2.60;99.90
19200;DHT22;9732;52.498;5.408;2022-12-18T09:02:51;-2.60;99.90
19200;DHT22;9732;52.498;5.408;2022-12-18T09:05:18;-2.60;99.90
19200;DHT22;9732;52.498;5.408;2022-12-18T09:07:48;-2.60;99.90
19200;DHT22;9732;52.498;5.408;2022-12-18T09:10:16;-2.60;99.90
19200;DHT22;9732;52.498;5.408;2022-12-18T09:12:45;-2.50;99.90
19200;DHT22;9732;52.498;5.408;2022-12-18T09:15:13;-2.40;99.90
19200;DHT22;9732;52.498;5.408;2022-12-18T09:17:39;-2.30;99.90
19200;DHT22;9732;52.498;5.408;2022-12-18T09:20:07;-2.40;99.90
19200;DHT22;9732;52.498;5.408;2022-12-18T09:22:34;-2.30;99.90
19200;DHT22;9732;52.498;5.408;2022-12-18T09:25:02;-2.30;99.90
19200;DHT22;9732;52.498;5.408;2022-12-18T09:27:33;-2.30;99.90
19200;DHT22;9732;52.498;5.408;2022-12-18T09:29:59;-2.30;99.90
19200;DHT22;9732;52.498;5.408;2022-12-18T09:32:26;-2.30;99.90
19200;DHT22;9732;52.498;5.408;2022-12-18T09:34:53;-2.30;99.90
19200;DHT22;9732;52.498;5.408;2022-12-18T09:37:22;-2.20;99.90
19200;DHT22;9732;52.498;5.408;2022-12-18T09:39:49;-2.10;99.90
19200;DHT22;9732;52.498;5.408;2022-12-18T09:42:21;-2.00;99.90
19200;DHT22;9732;52.498;5.408;2022-12-18T09:44:50;-2.00;99.90
19200;DHT22;9732;52.498;5.408;2022-12-18T09:47:20;-1.90;99.90
19200;DHT22;9732;52.498;5.408;2022-12-18T09:49:50;-1.90;99.90
19200;DHT22;9732;52.498;5.408;2022-12-18T09:52:23;-1.80;99.90
19200;DHT22;9732;52.498;5.408;2022-12-18T09:54:55;-1.80;99.90
19200;DHT22;9732;52.498;5.408;2022-12-18T09:57:25;-1.70;99.90
19200;DHT22;9732;52.498;5.408;2022-12-18T09:59:56;-1.70;99.90
19200;DHT22;9732;52.498;5.408;2022-12-18T10:02:26;-1.70;99.90
19200;DHT22;9732;52.498;5.408;2022-12-18T10:05:04;-1.70;99.90
19200;DHT22;9732;52.498;5.408;2022-12-18T10:07:47;-1.70;99.90
19200;DHT22;9732;52.498;5.408;2022-12-18T10:10:23;-1.60;99.90
19200;DHT22;9732;52.498;5.408;2022-12-18T10:12:59;-1.50;99.90
19200;DHT22;9732;52.498;5.408;2022-12-18T10:15:32;-1.60;99.90
19200;DHT22;9732;52.498;5.408;2022-12-18T10:18:12;-1.60;99.90
19200;DHT22;9732;52.498;5.408;2022-12-18T10:20:44;-1.50;99.90
19200;DHT22;9732;52.498;5.408;2022-12-18T10:23:17;-1.50;99.90
19200;DHT22;9732;52.498;5.408;2022-12-18T10:25:52;-1.40;99.90
19200;DHT22;9732;52.498;5.408;2022-12-18T10:28:22;-1.40;99.90
19200;DHT22;9732;52.498;5.408;2022-12-18T10:30:49;-1.40;99.90
19200;DHT22;9732;52.498;5.408;2022-12-18T10:33:18;-1.40;99.90
19200;DHT22;9732;52.498;5.408;2022-12-18T10:35:48;-1.30;99.90
19200;DHT22;9732;52.498;5.408;2022-12-18T10:38:26;-1.30;99.90
19200;DHT22;9732;52.498;5.408;2022-12-18T10:40:56;-1.30;99.90
19200;DHT22;9732;52.498;5.408;2022-12-18T10:43:26;-1.20;99.90
19200;DHT22;9732;52.498;5.408;2022-12-18T10:46:12;-1.20;99.90
19200;DHT22;9732;52.498;5.408;2022-12-18T10:48:50;-1.10;99.90
19200;DHT22;9732;52.498;5.408;2022-12-18T10:51:23;-1.10;99.90
19200;DHT22;9732;52.498;5.408;2022-12-18T10:53:59;-1.10;99.90
19200;DHT22;9732;52.498;5.408;2022-12-18T10:56:28;-1.00;99.90
19200;DHT22;9732;52.498;5.408;2022-12-18T10:58:59;-1.00;99.90
19200;DHT22;9732;52.498;5.408;2022-12-18T11:01:26;-1.00;99.90
19200;DHT22;9732;52.498;5.408;2022-12-18T11:04:07;-0.90;99.90
19200;DHT22;9732;52.498;5.408;2022-12-18T11:06:53;-0.90;99.90
19200;DHT22;9732;52.498;5.408;2022-12-18T11:09:21;-0.90;99.90
19200;DHT22;9732;52.498;5.408;2022-12-18T11:11:49;-0.90;99.90
19200;DHT22;9732;52.498;5.408;2022-12-18T11:14:22;-0.80;99.90
19200;DHT22;9732;52.498;5.408;2022-12-18T11:16:50;-0.80;99.90
19200;DHT22;9732;52.498;5.408;2022-12-18T11:19:32;-0.70;99.90
19200;DHT22;9732;52.498;5.408;2022-12-18T11:22:00;-0.70;99.90
19200;DHT22;9732;52.498;5.408;2022-12-18T11:24:30;-0.70;99.90
19200;DHT22;9732;52.498;5.408;2022-12-18T11:26:59;-0.70;99.90
19200;DHT22;9732;52.498;5.408;2022-12-18T11:29:32;-0.70;99.90
19200;DHT22;9732;52.498;5.408;2022-12-18T11:32:20;-0.70;99.90
19200;DHT22;9732;52.498;5.408;2022-12-18T11:34:52;-0.60;99.90
19200;DHT22;9732;52.498;5.408;2022-12-18T11:37:20;-0.60;99.90
19200;DHT22;9732;52.498;5.408;2022-12-18T11:39:52;-0.60;99.90
19200;DHT22;9732;52.498;5.408;2022-12-18T11:42:25;-0.60;99.90
19200;DHT22;9732;52.498;5.408;2022-12-18T11:44:59;-0.60;99.90
19200;DHT22;9732;52.498;5.408;2022-12-18T11:47:31;-0.50;99.90
19200;DHT22;9732;52.498;5.408;2022-12-18T11:50:13;-0.50;99.90
19200;DHT22;9732;52.498;5.408;2022-12-18T11:52:43;-0.40;99.90
19200;DHT22;9732;52.498;5.408;2022-12-18T11:55:12;-0.40;99.90
19200;DHT22;9732;52.498;5.408;2022-12-18T11:57:47;-0.40;99.90
19200;DHT22;9732;52.498;5.408;2022-12-18T12:00:20;-0.40;99.90
19200;DHT22;9732;52.498;5.408;2022-12-18T12:03:19;-0.40;99.90
19200;DHT22;9732;52.498;5.408;2022-12-18T12:05:58;-0.30;99.90
19200;DHT22;9732;52.498;5.408;2022-12-18T12:08:36;-0.30;99.90
19200;DHT22;9732;52.498;5.408;2022-12-18T12:11:10;-0.30;99.90
19200;DHT22;9732;52.498;5.408;2022-12-18T12:13:47;-0.30;99.90
19200;DHT22;9732;52.498;5.408;2022-12-18T12:16:24;-0.30;99.90
19200;DHT22;9732;52.498;5.408;2022-12-18T12:19:08;-0.30;99.90
19200;DHT22;9732;52.498;5.408;2022-12-18T12:21:48;-0.30;99.90
19200;DHT22;9732;52.498;5.408;2022-12-18T12:24:27;-0.30;99.90
19200;DHT22;9732;52.498;5.408;2022-12-18T12:27:02;-0.30;99.90
19200;DHT22;9732;52.498;5.408;2022-12-18T12:29:45;-0.30;99.90
19200;DHT22;9732;52.498;5.408;2022-12-18T12:32:25;-0.30;99.90
19200;DHT22;9732;52.498;5.408;2022-12-18T12:35:06;-0.20;99.90
19200;DHT22;9732;52.498;5.408;2022-12-18T12:37:41;-0.30;99.90
19200;DHT22;9732;52.498;5.408;2022-12-18T12:40:15;-0.20;99.90
19200;DHT22;9732;52.498;5.408;2022-12-18T12:42:47;-0.20;99.90
19200;DHT22;9732;52.498;5.408;2022-12-18T12:45:37;-0.20;99.90
19200;DHT22;9732;52.498;5.408;2022-12-18T12:48:17;-0.20;99.90
19200;DHT22;9732;52.498;5.408;2022-12-18T12:50:47;-0.20;99.90
19200;DHT22;9732;52.498;5.408;2022-12-18T12:53:23;-0.10;99.90
19200;DHT22;9732;52.498;5.408;2022-12-18T12:55:52;-0.10;99.90
19200;DHT22;9732;52.498;5.408;2022-12-18T12:58:28;-0.10;99.90
19200;DHT22;9732;52.498;5.408;2022-12-18T13:01:05;-0.10;99.90
19200;DHT22;9732;52.498;5.408;2022-12-18T13:03:43;-0.10;99.90
19200;DHT22;9732;52.498;5.408;2022-12-18T13:06:23;0.00;99.90
19200;DHT22;9732;52.498;5.408;2022-12-18T13:08:55;0.00;99.90
19200;DHT22;9732;52.498;5.408;2022-12-18T13:11:32;0.00;99.90
19200;DHT22;9732;52.498;5.408;2022-12-18T13:14:28;0.00;99.90
19200;DHT22;9732;52.498;5.408;2022-12-18T13:17:15;0.00;99.90
19200;DHT22;9732;52.498;5.408;2022-12-18T13:19:44;0.00;99.90
19200;DHT22;9732;52.498;5.408;2022-12-18T13:22:21;0.00;99.90
19200;DHT22;9732;52.498;5.408;2022-12-18T13:24:49;0.00;99.90
19200;DHT22;9732;52.498;5.408;2022-12-18T13:27:54;0.00;99.90
19200;DHT22;9732;52.498;5.408;2022-12-18T13:30:46;0.00;99.90
19200;DHT22;9732;52.498;5.408;2022-12-18T13:33:41;0.00;99.90
19200;DHT22;9732;52.498;5.408;2022-12-18T13:36:31;0.00;99.90
19200;DHT22;9732;52.498;5.408;2022-12-18T13:39:20;0.10;99.90
19200;DHT22;9732;52.498;5.408;2022-12-18T13:41:49;0.10;99.90
19200;DHT22;9732;52.498;5.408;2022-12-18T13:44:26;0.00;99.90
19200;DHT22;9732;52.498;5.408;2022-12-18T13:46:55;0.10;99.90
19200;DHT22;9732;52.498;5.408;2022-12-18T13:49:25;0.10;99.90
19200;DHT22;9732;52.498;5.408;2022-12-18T13:51:55;0.10;99.90
19200;DHT22;9732;52.498;5.408;2022-12-18T13:54:27;0.10;99.90
19200;DHT22;9732;52.498;5.408;2022-12-18T13:56:55;0.10;99.90
19200;DHT22;9732;52.498;5.408;2022-12-18T13:59:24;0.10;99.90
19200;DHT22;9732;52.498;5.408;2022-12-18T14:01:54;0.10;99.90
19200;DHT22;9732;52.498;5.408;2022-12-18T14:04:24;0.10;99.90
19200;DHT22;9732;52.498;5.408;2022-12-18T14:06:56;0.10;99.90
19200;DHT22;9732;52.498;5.408;2022-12-18T14:09:26;0.00;99.90
19200;DHT22;9732;52.498;5.408;2022-12-18T14:11:54;0.10;99.90
19200;DHT22;9732;52.498;5.408;2022-12-18T14:14:44;0.00;99.90
19200;DHT22;9732;52.498;5.408;2022-12-18T14:17:13;0.10;99.90
19200;DHT22;9732;52.498;5.408;2022-12-18T14:19:45;0.10;99.90
19200;DHT22;9732;52.498;5.408;2022-12-18T14:22:18;0.10;99.90
19200;DHT22;9732;52.498;5.408;2022-12-18T14:24:47;0.10;99.90
19200;DHT22;9732;52.498;5.408;2022-12-18T14:27:22;0.10;99.90
19200;DHT22;9732;52.498;5.408;2022-12-18T14:29:50;0.10;99.90
19200;DHT22;9732;52.498;5.408;2022-12-18T14:32:18;0.10;99.90
19200;DHT22;9732;52.498;5.408;2022-12-18T14:34:47;0.10;99.90
19200;DHT22;9732;52.498;5.408;2022-12-18T14:37:17;0.10;99.90
19200;DHT22;9732;52.498;5.408;2022-12-18T14:39:58;0.10;99.90
19200;DHT22;9732;52.498;5.408;2022-12-18T14:42:25;0.10;99.90
19200;DHT22;9732;52.498;5.408;2022-12-18T14:47:54;0.20;99.90
19200;DHT22;9732;52.498;5.408;2022-12-18T14:50:21;0.20;99.90
19200;DHT22;9732;52.498;5.408;2022-12-18T14:52:49;0.20;99.90
19200;DHT22;9732;52.498;5.408;2022-12-18T14:55:17;0.20;99.90
19200;DHT22;9732;52.498;5.408;2022-12-18T14:57:45;0.20;99.90
19200;DHT22;9732;52.498;5.408;2022-12-18T15:00:17;0.20;99.90
19200;DHT22;9732;52.498;5.408;2022-12-18T15:02:46;0.20;99.90
19200;DHT22;9732;52.498;5.408;2022-12-18T15:05:18;0.30;99.90
19200;DHT22;9732;52.498;5.408;2022-12-18T15:07:47;0.20;99.90
19200;DHT22;9732;52.498;5.408;2022-12-18T15:10:16;0.20;99.90
19200;DHT22;9732;52.498;5.408;2022-12-18T15:12:45;0.20;99.90
19200;DHT22;9732;52.498;5.408;2022-12-18T15:15:46;0.20;99.90
19200;DHT22;9732;52.498;5.408;2022-12-18T15:18:15;0.20;99.90
19200;DHT22;9732;52.498;5.408;2022-12-18T15:20:44;0.20;99.90
19200;DHT22;9732;52.498;5.408;2022-12-18T15:23:15;0.20;99.90
19200;DHT22;9732;52.498;5.408;2022-12-18T15:25:44;0.20;99.90
19200;DHT22;9732;52.498;5.408;2022-12-18T15:28:21;0.30;99.90
19200;DHT22;9732;52.498;5.408;2022-12-18T15:31:00;0.30;99.90
19200;DHT22;9732;52.498;5.408;2022-12-18T15:33:31;0.30;99.90
19200;DHT22;9732;52.498;5.408;2022-12-18T15:35:59;0.30;99.90
19200;DHT22;9732;52.498;5.408;2022-12-18T15:38:26;0.30;99.90
19200;DHT22;9732;52.498;5.408;2022-12-18T15:40:55;0.30;99.90
19200;DHT22;9732;52.498;5.408;2022-12-18T15:43:23;0.30;99.90
19200;DHT22;9732;52.498;5.408;2022-12-18T15:46:03;0.30;99.90
19200;DHT22;9732;52.498;5.408;2022-12-18T15:48:32;0.30;99.90
19200;DHT22;9732;52.498;5.408;2022-12-18T15:50:59;0.30;99.90
19200;DHT22;9732;52.498;5.408;2022-12-18T15:53:30;0.30;99.90
19200;DHT22;9732;52.498;5.408;2022-12-18T15:55:58;0.30;99.90
19200;DHT22;9732;52.498;5.408;2022-12-18T15:58:43;0.30;99.90
19200;DHT22;9732;52.498;5.408;2022-12-18T16:01:10;0.30;99.90
19200;DHT22;9732;52.498;5.408;2022-12-18T16:03:38;0.30;99.90
19200;DHT22;9732;52.498;5.408;2022-12-18T16:06:05;0.30;99.90
19200;DHT22;9732;52.498;5.408;2022-12-18T16:08:32;0.30;99.90
19200;DHT22;9732;52.498;5.408;2022-12-18T16:11:00;0.40;99.90
19200;DHT22;9732;52.498;5.408;2022-12-18T16:13:27;0.40;99.90
19200;DHT22;9732;52.498;5.408;2022-12-18T16:15:54;0.40;99.90
19200;DHT22;9732;52.498;5.408;2022-12-18T16:18:24;0.40;99.90